createdAt,value
2022-11-24T00:01:29.520Z,5.30
2022-11-24T00:04:06.052Z,5.30
2022-11-24T00:06:35.866Z,5.30
2022-11-24T00:09:05.240Z,5.20
2022-11-24T00:11:35.882Z,5.20
2022-11-24T00:14:06.955Z,5.20
2022-11-24T00:16:37.017Z,5.20
2022-11-24T00:19:09.228Z,5.20
2022-11-24T00:21:38.768Z,5.20
2022-11-24T00:24:06.309Z,5.10
2022-11-24T00:26:37.316Z,5.00
2022-11-24T00:29:07.783Z,5.00
2022-11-24T00:31:40.915Z,5.00
2022-11-24T00:34:11.305Z,5.00
2022-11-24T00:36:40.539Z,5.00
2022-11-24T00:39:12.831Z,5.00
2022-11-24T00:41:41.958Z,5.00
2022-11-24T00:44:09.095Z,5.00
2022-11-24T00:46:37.515Z,5.00
2022-11-24T00:49:06.160Z,5.00
2022-11-24T00:51:34.157Z,5.00
2022-11-24T00:54:05.662Z,4.90
2022-11-24T00:56:33.489Z,4.90
2022-11-24T00:59:12.703Z,5.00
2022-11-24T01:01:42.694Z,5.00
2022-11-24T01:04:17.315Z,5.00
2022-11-24T01:06:51.804Z,5.10
2022-11-24T01:09:20.376Z,5.10
2022-11-24T01:12:04.557Z,5.10
2022-11-24T01:14:33.267Z,5.20
2022-11-24T01:17:05.838Z,5.30
2022-11-24T01:19:32.978Z,5.30
2022-11-24T01:22:05.870Z,5.40
2022-11-24T01:24:33.762Z,5.40
2022-11-24T01:27:05.599Z,5.50
2022-11-24T01:29:33.748Z,5.50
2022-11-24T01:32:00.928Z,5.60
2022-11-24T01:34:30.023Z,5.50
2022-11-24T01:36:56.900Z,5.50
2022-11-24T01:39:25.223Z,5.50
2022-11-24T01:41:52.889Z,5.50
2022-11-24T01:44:28.606Z,5.40
2022-11-24T01:47:30.724Z,5.30
2022-11-24T01:50:04.860Z,5.30
2022-11-24T01:52:46.991Z,5.20
2022-11-24T01:55:21.310Z,5.20
2022-11-24T01:57:55.021Z,5.20
2022-11-24T02:00:23.032Z,5.20
2022-11-24T02:02:50.220Z,5.20
2022-11-24T02:05:28.279Z,5.20
2022-11-24T02:07:59.143Z,5.20
2022-11-24T02:10:27.123Z,5.30
2022-11-24T02:12:57.629Z,5.40
2022-11-24T02:15:29.026Z,5.40
2022-11-24T02:17:58.861Z,5.50
2022-11-24T02:20:26.503Z,5.50
2022-11-24T02:23:24.592Z,5.40
2022-11-24T02:25:59.961Z,5.40
2022-11-24T02:28:30.747Z,5.40
2022-11-24T02:31:00.890Z,5.30
2022-11-24T02:33:33.336Z,5.30
2022-11-24T02:36:00.912Z,5.30
2022-11-24T02:38:36.180Z,5.30
2022-11-24T02:41:11.164Z,5.30
2022-11-24T02:43:49.694Z,5.30
2022-11-24T02:46:16.971Z,5.30
2022-11-24T02:48:43.856Z,5.20
2022-11-24T02:51:12.309Z,5.20
2022-11-24T02:53:39.961Z,5.20
2022-11-24T02:56:07.245Z,5.20
2022-11-24T02:58:35.541Z,5.30
2022-11-24T03:01:06.003Z,5.40
2022-11-24T03:03:33.449Z,5.40
2022-11-24T03:06:00.912Z,5.40
2022-11-24T03:08:28.948Z,5.40
2022-11-24T03:10:55.970Z,5.40
2022-11-24T03:13:22.963Z,5.40
2022-11-24T03:15:50.003Z,5.40
2022-11-24T03:18:16.897Z,5.40
2022-11-24T03:20:44.736Z,5.40
2022-11-24T03:23:12.027Z,5.40
2022-11-24T03:25:39.729Z,5.40
2022-11-24T03:28:06.905Z,5.40
2022-11-24T03:30:33.964Z,5.40
2022-11-24T03:33:00.949Z,5.40
2022-11-24T03:35:29.923Z,5.40
2022-11-24T03:37:57.827Z,5.40
2022-11-24T03:40:24.947Z,5.40
2022-11-24T03:42:51.922Z,5.40
2022-11-24T03:48:09.921Z,5.40
2022-11-24T03:50:37.063Z,5.40
2022-11-24T03:53:04.942Z,5.40
2022-11-24T03:55:33.149Z,5.40
2022-11-24T03:58:01.191Z,5.40
2022-11-24T04:00:32.996Z,5.40
2022-11-24T04:02:59.995Z,5.40
2022-11-24T04:05:33.180Z,5.40
2022-11-24T04:08:04.359Z,5.40
2022-11-24T04:10:33.683Z,5.40
2022-11-24T04:13:00.912Z,5.40
2022-11-24T04:15:30.768Z,5.40
2022-11-24T04:18:01.092Z,5.50
2022-11-24T04:21:10.425Z,5.40
2022-11-24T04:23:38.151Z,5.40
2022-11-24T04:26:10.839Z,5.40
2022-11-24T04:28:38.504Z,5.40
2022-11-24T04:31:07.091Z,5.40
2022-11-24T04:33:34.046Z,5.40
2022-11-24T04:36:00.945Z,5.40
2022-11-24T04:39:25.368Z,5.50
2022-11-24T04:41:19.239Z,5.50
2022-11-24T04:43:50.443Z,5.50
2022-11-24T04:46:18.311Z,5.50
2022-11-24T04:48:46.665Z,5.60
2022-11-24T04:51:15.629Z,5.60
2022-11-24T04:53:43.010Z,5.60
2022-11-24T04:56:10.111Z,5.60
2022-11-24T04:58:38.259Z,5.60
2022-11-24T05:01:09.488Z,5.60
2022-11-24T05:03:37.349Z,5.60
2022-11-24T05:06:05.536Z,5.60
2022-11-24T05:08:33.058Z,5.60
2022-11-24T05:11:04.686Z,5.60
2022-11-24T05:13:33.005Z,5.60
2022-11-24T05:16:05.583Z,5.50
2022-11-24T05:18:33.438Z,5.50
2022-11-24T05:21:04.126Z,5.50
2022-11-24T05:23:31.073Z,5.40
2022-11-24T05:26:03.753Z,5.40
2022-11-24T05:28:32.264Z,5.40
2022-11-24T05:31:05.106Z,5.40
2022-11-24T05:33:33.449Z,5.40
2022-11-24T05:36:02.541Z,5.40
2022-11-24T05:38:31.441Z,5.30
2022-11-24T05:41:03.608Z,5.30
2022-11-24T05:43:31.988Z,5.30
2022-11-24T05:46:02.595Z,5.20
2022-11-24T05:48:32.679Z,5.20
2022-11-24T05:51:00.038Z,5.20
2022-11-24T05:53:32.160Z,5.20
2022-11-24T05:56:04.802Z,5.10
2022-11-24T05:58:32.014Z,5.10
2022-11-24T06:01:00.432Z,5.10
2022-11-24T06:03:30.992Z,5.10
2022-11-24T06:05:57.976Z,5.10
2022-11-24T06:08:30.911Z,5.20
2022-11-24T06:11:17.247Z,5.10
2022-11-24T06:13:48.656Z,5.10
2022-11-24T06:19:42.098Z,5.10
2022-11-24T06:22:10.094Z,5.10
2022-11-24T06:24:37.180Z,5.10
2022-11-24T06:27:08.311Z,5.10
2022-11-24T06:44:12.122Z,5.10
2022-11-24T06:46:41.965Z,5.20
2022-11-24T06:49:09.923Z,5.10
2022-11-24T06:51:40.306Z,5.10
2022-11-24T06:58:34.219Z,5.20
2022-11-24T07:05:21.982Z,5.40
2022-11-24T07:08:20.025Z,5.40
2022-11-24T07:11:39.999Z,5.40
2022-11-24T07:18:35.156Z,5.50
2022-11-24T07:21:05.399Z,5.50
2022-11-24T07:23:33.462Z,5.60
2022-11-24T07:26:13.181Z,5.60
2022-11-24T07:28:42.820Z,5.80
2022-11-24T07:31:13.478Z,5.90
2022-11-24T07:33:41.747Z,6.00
2022-11-24T07:36:09.971Z,6.20
2022-11-24T07:38:40.534Z,6.40
2022-11-24T07:41:12.548Z,6.70
2022-11-24T07:43:40.716Z,6.80
2022-11-24T07:46:12.336Z,7.00
2022-11-24T07:48:41.341Z,7.20
2022-11-24T07:51:10.574Z,7.40
2022-11-24T07:53:39.108Z,7.60
2022-11-24T07:56:08.567Z,7.80
2022-11-24T07:58:38.157Z,8.10
2022-11-24T08:01:15.384Z,8.30
2022-11-24T08:03:44.580Z,8.20
2022-11-24T08:06:38.625Z,8.00
2022-11-24T08:09:04.836Z,7.80
2022-11-24T08:11:34.552Z,7.50
2022-11-24T08:14:03.870Z,7.30
2022-11-24T08:16:32.470Z,7.20
2022-11-24T08:19:04.439Z,7.20
2022-11-24T08:21:32.844Z,7.10
2022-11-24T08:24:01.175Z,7.10
2022-11-24T08:26:30.609Z,7.20
2022-11-24T08:28:59.408Z,7.20
2022-11-24T08:31:33.943Z,7.40
2022-11-24T08:34:05.031Z,7.70
2022-11-24T08:36:34.278Z,7.80
2022-11-24T08:39:03.342Z,7.80
2022-11-24T08:41:33.540Z,7.80
2022-11-24T08:44:04.638Z,7.60
2022-11-24T08:46:32.864Z,7.40
2022-11-24T08:49:04.728Z,7.30
2022-11-24T08:51:33.660Z,7.30
2022-11-24T08:54:04.120Z,7.20
2022-11-24T08:56:33.146Z,7.00
2022-11-24T08:59:03.743Z,7.00
2022-11-24T09:01:33.503Z,7.00
2022-11-24T09:04:04.163Z,6.90
2022-11-24T09:06:34.345Z,6.70
2022-11-24T09:09:03.085Z,6.50
2022-11-24T09:12:13.014Z,6.30
2022-11-24T09:14:44.449Z,6.10
2022-11-24T09:17:13.148Z,6.00
2022-11-24T09:19:49.389Z,6.00
2022-11-24T09:22:19.308Z,5.90
2022-11-24T09:24:47.553Z,5.80
2022-11-24T09:27:19.489Z,5.80
2022-11-24T09:29:47.775Z,5.70
2022-11-24T09:32:15.896Z,5.70
2022-11-24T09:34:49.699Z,5.70
2022-11-24T09:37:18.899Z,5.70
2022-11-24T09:39:47.270Z,5.70
2022-11-24T09:42:54.748Z,5.70
2022-11-24T09:46:06.613Z,5.60
2022-11-24T09:48:41.557Z,5.60
2022-11-24T09:51:14.486Z,5.60
2022-11-24T09:54:21.987Z,5.60
2022-11-24T09:56:51.266Z,5.70
2022-11-24T09:59:33.677Z,5.70
2022-11-24T10:02:05.855Z,5.70
2022-11-24T10:04:42.908Z,5.70
2022-11-24T10:07:25.700Z,5.80
2022-11-24T10:10:14.190Z,5.80
2022-11-24T10:12:55.928Z,5.80
2022-11-24T10:15:50.707Z,5.80
2022-11-24T10:18:54.979Z,5.90
2022-11-24T10:22:07.874Z,5.90
2022-11-24T10:24:59.546Z,5.90
2022-11-24T10:27:48.132Z,5.90
2022-11-24T10:30:21.209Z,5.80
2022-11-24T10:32:55.119Z,5.90
2022-11-24T10:35:35.456Z,5.80
2022-11-24T10:38:26.202Z,5.80
2022-11-24T10:41:35.980Z,5.80
2022-11-24T10:44:03.563Z,5.80
2022-11-24T10:46:36.262Z,5.80
2022-11-24T10:49:06.173Z,5.80
2022-11-24T10:51:43.918Z,5.80
2022-11-24T10:54:19.642Z,5.80
2022-11-24T10:56:50.947Z,5.90
2022-11-24T10:59:22.650Z,5.90
2022-11-24T11:01:53.400Z,6.00
2022-11-24T11:04:25.779Z,5.90
2022-11-24T11:07:27.755Z,5.90
2022-11-24T11:10:19.453Z,5.90
2022-11-24T11:12:49.606Z,6.00
2022-11-24T11:15:31.095Z,6.00
2022-11-24T11:18:01.055Z,6.00
2022-11-24T11:20:35.193Z,5.90
2022-11-24T11:23:16.337Z,5.90
2022-11-24T11:25:44.366Z,5.90
2022-11-24T11:28:33.118Z,5.90
2022-11-24T11:31:22.149Z,6.00
2022-11-24T11:34:03.637Z,6.10
2022-11-24T11:36:33.547Z,6.30
2022-11-24T11:39:06.104Z,6.40
2022-11-24T11:41:36.830Z,6.50
2022-11-24T11:44:29.689Z,6.50
2022-11-24T11:46:59.680Z,6.50
2022-11-24T11:49:28.207Z,6.40
2022-11-24T11:52:32.431Z,6.60
2022-11-24T11:55:37.579Z,6.70
2022-11-24T11:58:35.473Z,6.60
2022-11-24T12:01:45.576Z,6.80
2022-11-24T12:04:39.663Z,6.90
2022-11-24T12:07:18.239Z,7.10
2022-11-24T12:10:06.607Z,7.20
2022-11-24T12:13:07.699Z,7.20
2022-11-24T12:15:51.511Z,7.10
2022-11-24T12:18:59.005Z,7.10
2022-11-24T12:21:41.867Z,7.60
2022-11-24T12:24:21.557Z,8.30
2022-11-24T12:26:57.728Z,8.50
2022-11-24T12:29:59.617Z,8.40
2022-11-24T12:33:04.714Z,8.60
2022-11-24T12:35:48.722Z,8.20
2022-11-24T12:38:55.434Z,7.80
2022-11-24T12:41:55.743Z,7.60
2022-11-24T12:45:00.588Z,7.40
2022-11-24T12:48:07.022Z,7.20
2022-11-24T12:50:41.182Z,7.00
2022-11-24T12:53:32.149Z,7.00
2022-11-24T12:56:12.130Z,7.00
2022-11-24T12:59:18.733Z,6.90
2022-11-24T13:02:04.542Z,6.80
2022-11-24T13:04:46.939Z,6.60
2022-11-24T13:07:19.949Z,6.60
2022-11-24T13:10:54.304Z,6.60
2022-11-24T13:13:17.677Z,6.60
2022-11-24T13:16:35.222Z,6.50
2022-11-24T13:19:13.082Z,6.40
2022-11-24T13:21:54.933Z,6.30
2022-11-24T13:24:31.815Z,6.30
2022-11-24T13:27:17.154Z,6.20
2022-11-24T13:29:47.817Z,6.30
2022-11-24T13:32:23.585Z,6.40
2022-11-24T13:34:55.185Z,6.50
2022-11-24T13:37:35.903Z,6.70
2022-11-24T13:40:17.773Z,6.70
2022-11-24T13:43:02.907Z,6.80
2022-11-24T13:45:43.133Z,6.80
2022-11-24T13:48:28.328Z,6.80
2022-11-24T13:51:04.634Z,6.80
2022-11-24T13:53:49.710Z,6.70
2022-11-24T13:56:24.597Z,6.70
2022-11-24T13:59:00.381Z,6.70
2022-11-24T14:01:40.824Z,6.70
2022-11-24T14:04:32.244Z,6.60
2022-11-24T14:07:08.728Z,6.60
2022-11-24T14:09:45.574Z,6.50
2022-11-24T14:12:27.896Z,6.40
2022-11-24T14:16:15.125Z,6.20
2022-11-24T14:23:18.169Z,5.90
2022-11-24T14:25:57.386Z,5.70
2022-11-24T14:28:29.709Z,5.70
2022-11-24T14:31:31.040Z,5.80
2022-11-24T14:34:12.557Z,5.70
2022-11-24T14:36:40.103Z,5.70
2022-11-24T14:39:16.679Z,5.70
2022-11-24T14:42:22.395Z,5.70
2022-11-24T14:45:01.029Z,5.80
2022-11-24T14:47:44.917Z,5.90
2022-11-24T14:50:18.325Z,5.90
2022-11-24T14:52:58.829Z,5.90
2022-11-24T14:55:30.557Z,5.90
2022-11-24T14:58:00.630Z,6.00
2022-11-24T15:00:33.488Z,6.00
2022-11-24T15:03:40.895Z,6.00
2022-11-24T15:06:17.892Z,6.00
2022-11-24T15:08:48.897Z,6.00
2022-11-24T15:11:16.755Z,6.00
2022-11-24T15:13:54.696Z,6.10
2022-11-24T15:16:26.218Z,6.10
2022-11-24T15:19:03.686Z,6.10
2022-11-24T15:21:36.911Z,6.10
2022-11-24T15:24:18.153Z,6.20
2022-11-24T15:26:46.497Z,6.20
2022-11-24T15:29:14.515Z,6.20
2022-11-24T15:31:47.706Z,6.10
2022-11-24T15:34:19.151Z,6.10
2022-11-24T15:36:49.039Z,6.10
2022-11-24T15:39:17.179Z,6.10
2022-11-24T15:41:47.077Z,6.10
2022-11-24T15:44:14.085Z,6.10
2022-11-24T15:46:42.580Z,6.10
2022-11-24T15:53:58.863Z,6.00
2022-11-24T15:56:38.933Z,5.80
2022-11-24T15:59:20.636Z,5.70
2022-11-24T16:01:50.669Z,5.70
2022-11-24T16:04:18.934Z,5.70
2022-11-24T16:06:46.902Z,5.70
2022-11-24T16:09:16.543Z,5.70
2022-11-24T16:11:44.926Z,5.70
2022-11-24T16:14:12.870Z,5.70
2022-11-24T16:16:43.039Z,5.60
2022-11-24T16:19:15.487Z,5.60
2022-11-24T16:21:43.435Z,5.60
2022-11-24T16:24:12.982Z,5.60
2022-11-24T16:26:41.544Z,5.50
2022-11-24T16:29:09.592Z,5.50
2022-11-24T16:31:39.532Z,5.50
2022-11-24T16:34:07.450Z,5.50
2022-11-24T16:36:37.388Z,5.50
2022-11-24T16:39:07.240Z,5.50
2022-11-24T16:41:35.112Z,5.50
2022-11-24T16:44:46.110Z,5.50
2022-11-24T16:47:25.503Z,5.40
2022-11-24T16:50:03.624Z,5.40
2022-11-24T16:52:43.474Z,5.30
2022-11-24T16:59:38.473Z,5.30
2022-11-24T17:02:12.071Z,5.30
2022-11-24T17:04:57.043Z,5.30
2022-11-24T17:07:47.714Z,5.40
2022-11-24T17:10:17.669Z,5.40
2022-11-24T17:13:34.379Z,5.40
2022-11-24T17:16:13.875Z,5.40
2022-11-24T17:18:42.906Z,5.40
2022-11-24T17:21:15.701Z,5.30
2022-11-24T17:23:45.616Z,5.20
2022-11-24T17:26:16.364Z,5.20
2022-11-24T17:28:45.269Z,5.20
2022-11-24T17:31:21.896Z,5.10
2022-11-24T17:33:55.254Z,5.10
2022-11-24T17:36:29.594Z,5.00
2022-11-24T17:39:04.542Z,4.90
2022-11-24T17:41:34.813Z,4.90
2022-11-24T17:44:08.637Z,4.80
2022-11-24T17:46:37.239Z,4.70
2022-11-24T17:49:06.734Z,4.70
2022-11-24T17:51:37.539Z,4.60
2022-11-24T17:54:44.855Z,4.50
2022-11-24T17:56:57.443Z,4.40
2022-11-24T17:59:27.305Z,4.30
2022-11-24T18:01:55.521Z,4.20
2022-11-24T18:04:27.685Z,4.20
2022-11-24T18:11:31.428Z,4.00
2022-11-24T18:18:12.398Z,3.80
2022-11-24T18:29:16.607Z,3.60
2022-11-24T18:36:07.626Z,3.40
2022-11-24T18:42:57.388Z,3.30
2022-11-24T18:45:24.233Z,3.20
2022-11-24T18:47:54.235Z,3.20
2022-11-24T18:50:22.631Z,3.10
2022-11-24T18:52:53.841Z,3.00
2022-11-24T18:55:23.704Z,2.90
2022-11-24T18:57:51.664Z,2.70
2022-11-24T19:00:27.922Z,2.60
2022-11-24T19:07:20.441Z,2.30
2022-11-24T19:09:48.453Z,2.10
2022-11-24T19:12:16.371Z,2.10
2022-11-24T19:14:48.686Z,2.00
2022-11-24T19:17:16.534Z,2.00
2022-11-24T19:19:44.475Z,1.90
2022-11-24T19:22:13.292Z,1.90
2022-11-24T19:24:41.805Z,1.80
2022-11-24T19:27:16.572Z,1.80
2022-11-24T19:29:55.619Z,1.70
2022-11-24T19:32:36.415Z,1.80
2022-11-24T19:35:15.925Z,1.90
2022-11-24T19:38:48.348Z,2.00
2022-11-24T19:41:54.494Z,2.10
2022-11-24T19:44:26.810Z,2.00
2022-11-24T19:46:58.285Z,1.90
2022-11-24T19:50:22.306Z,1.70
2022-11-24T19:52:58.434Z,1.60
2022-11-24T20:00:15.148Z,1.80
2022-11-24T20:02:54.234Z,1.90
2022-11-24T20:05:34.668Z,1.90
2022-11-24T20:08:19.991Z,1.90
2022-11-24T20:11:18.909Z,1.90
2022-11-24T20:13:52.189Z,2.00
2022-11-24T20:16:35.330Z,2.00
2022-11-24T20:19:22.266Z,2.00
2022-11-24T20:22:02.835Z,2.00
2022-11-24T20:24:37.072Z,2.00
2022-11-24T20:31:36.300Z,2.00
2022-11-24T20:34:28.513Z,1.90
2022-11-24T20:37:16.108Z,1.90
2022-11-24T20:44:16.138Z,1.90
2022-11-24T20:52:22.343Z,1.60
2022-11-24T20:55:20.319Z,1.50
2022-11-24T21:02:08.789Z,1.20
2022-11-24T21:05:35.701Z,1.10
2022-11-24T21:12:30.224Z,0.90
2022-11-24T21:19:22.208Z,0.60
2022-11-24T21:22:04.976Z,0.40
2022-11-24T21:24:33.404Z,0.40
2022-11-24T21:27:10.267Z,0.50
2022-11-24T21:29:38.542Z,0.50
2022-11-24T21:32:26.570Z,0.50
2022-11-24T21:34:54.561Z,0.50
2022-11-24T21:37:22.621Z,0.50
2022-11-24T21:39:50.508Z,0.40
2022-11-24T21:42:26.658Z,0.40
2022-11-24T21:45:42.276Z,0.30
2022-11-24T21:48:18.563Z,0.30
2022-11-24T21:51:08.798Z,0.20
2022-11-24T21:58:07.564Z,0.30
2022-11-24T22:08:53.490Z,0.10
2022-11-24T22:15:28.981Z,0.00
2022-11-24T22:22:25.569Z,-0.20
2022-11-24T22:29:21.208Z,-0.20
2022-11-24T22:37:13.242Z,-0.20
2022-11-24T22:44:12.077Z,-0.30
2022-11-24T22:46:52.042Z,-0.30
2022-11-24T22:53:59.536Z,-0.30
2022-11-24T23:01:34.231Z,-0.20
2022-11-24T23:04:40.305Z,-0.30
2022-11-24T23:07:44.850Z,-0.30
2022-11-24T23:10:16.162Z,-0.40
2022-11-24T23:12:43.190Z,-0.40
2022-11-24T23:15:23.785Z,-0.40
2022-11-24T23:18:05.265Z,-0.50
2022-11-24T23:20:38.130Z,-0.60
2022-11-24T23:23:17.241Z,-0.50
2022-11-24T23:25:47.564Z,-0.60
2022-11-24T23:28:15.392Z,-0.60
2022-11-24T23:30:43.204Z,-0.50
2022-11-24T23:33:11.018Z,-0.40
2022-11-24T23:35:39.074Z,-0.40
2022-11-24T23:38:08.072Z,-0.40
2022-11-24T23:40:36.087Z,-0.30
2022-11-24T23:43:05.857Z,-0.30
2022-11-24T23:45:33.826Z,-0.30
2022-11-24T23:48:04.558Z,-0.30
2022-11-24T23:50:35.423Z,-0.30
2022-11-24T23:53:05.219Z,-0.40
2022-11-24T23:55:57.037Z,-0.50
2022-11-24T23:58:40.423Z,-0.50
